createdAt,value
2022-12-31T00:01:47.830Z,2.60
2022-12-31T00:04:16.203Z,2.60
2022-12-31T00:06:44.383Z,2.60
2022-12-31T00:09:14.037Z,2.60
2022-12-31T00:11:42.418Z,2.60
2022-12-31T00:14:10.777Z,2.60
2022-12-31T00:16:40.297Z,2.60
2022-12-31T00:19:10.195Z,2.60
2022-12-31T00:21:38.965Z,2.60
2022-12-31T00:24:07.872Z,2.60
2022-12-31T00:26:37.587Z,2.60
2022-12-31T00:29:06.305Z,2.60
2022-12-31T00:31:38.513Z,2.70
2022-12-31T00:34:07.440Z,2.70
2022-12-31T00:36:38.591Z,2.70
2022-12-31T00:39:09.841Z,2.60
2022-12-31T00:41:39.438Z,2.60
2022-12-31T00:44:07.794Z,2.70
2022-12-31T00:49:05.680Z,2.70
2022-12-31T00:51:34.237Z,2.70
2022-12-31T00:54:02.494Z,2.70
2022-12-31T00:56:31.718Z,2.70
2022-12-31T00:59:01.349Z,2.70
2022-12-31T01:01:30.773Z,2.70
2022-12-31T01:04:04.232Z,2.80
2022-12-31T01:06:32.406Z,2.80
2022-12-31T01:09:00.755Z,2.80
2022-12-31T01:11:30.241Z,3.00
2022-12-31T01:13:59.387Z,3.00
2022-12-31T01:16:30.936Z,3.00
2022-12-31T01:18:59.778Z,3.00
2022-12-31T01:21:28.331Z,3.00
2022-12-31T01:23:56.485Z,3.10
2022-12-31T01:26:24.658Z,3.10
2022-12-31T01:28:53.106Z,3.10
2022-12-31T01:31:21.947Z,3.10
2022-12-31T01:33:51.909Z,3.20
2022-12-31T01:36:25.527Z,3.20
2022-12-31T01:38:54.801Z,3.30
2022-12-31T01:41:24.586Z,3.40
2022-12-31T01:43:54.642Z,3.40
2022-12-31T01:46:26.830Z,3.40
2022-12-31T01:48:58.176Z,3.40
2022-12-31T01:51:30.096Z,3.40
2022-12-31T01:53:58.716Z,3.40
2022-12-31T01:56:27.379Z,3.50
2022-12-31T01:58:56.589Z,3.60
2022-12-31T02:01:27.154Z,3.60
2022-12-31T02:03:57.392Z,3.60
2022-12-31T02:06:27.112Z,3.70
2022-12-31T02:08:55.463Z,3.70
2022-12-31T02:11:25.395Z,3.70
2022-12-31T02:13:58.340Z,3.80
2022-12-31T02:16:32.990Z,4.00
2022-12-31T02:19:06.835Z,4.00
2022-12-31T02:21:52.839Z,4.00
2022-12-31T02:24:41.953Z,4.00
2022-12-31T02:27:11.739Z,4.00
2022-12-31T02:29:57.505Z,4.10
2022-12-31T02:32:31.122Z,4.10
2022-12-31T02:35:02.417Z,4.10
2022-12-31T02:37:31.689Z,4.10
2022-12-31T02:40:00.261Z,4.10
2022-12-31T02:42:28.579Z,4.00
2022-12-31T02:44:56.973Z,4.10
2022-12-31T02:47:40.422Z,4.00
2022-12-31T02:50:14.948Z,4.10
2022-12-31T02:52:48.412Z,4.00
2022-12-31T02:55:20.317Z,4.00
2022-12-31T02:57:55.632Z,4.70
2022-12-31T03:00:41.039Z,4.00
2022-12-31T03:03:11.934Z,4.10
2022-12-31T03:05:43.066Z,4.10
2022-12-31T03:08:11.242Z,4.10
2022-12-31T03:10:39.449Z,4.10
2022-12-31T03:13:06.696Z,4.10
2022-12-31T03:15:35.681Z,4.10
2022-12-31T03:18:05.141Z,4.20
2022-12-31T03:20:53.116Z,4.20
2022-12-31T03:23:26.781Z,4.10
2022-12-31T03:25:57.905Z,4.10
2022-12-31T03:28:26.978Z,4.20
2022-12-31T03:30:57.106Z,4.20
2022-12-31T03:33:25.951Z,4.30
2022-12-31T03:35:55.720Z,4.30
2022-12-31T03:38:24.027Z,4.30
2022-12-31T03:40:53.006Z,4.20
2022-12-31T03:43:21.635Z,4.30
2022-12-31T03:45:51.744Z,4.30
2022-12-31T03:48:20.381Z,4.30
2022-12-31T03:50:48.854Z,4.30
2022-12-31T03:53:18.755Z,4.30
2022-12-31T03:55:46.953Z,4.20
2022-12-31T03:58:15.169Z,4.20
2022-12-31T04:00:43.526Z,4.20
2022-12-31T04:03:11.787Z,4.10
2022-12-31T04:05:40.641Z,4.10
2022-12-31T04:08:08.806Z,4.10
2022-12-31T04:10:38.436Z,4.10
2022-12-31T04:13:06.788Z,4.10
2022-12-31T04:15:34.928Z,4.10
2022-12-31T04:18:03.197Z,4.10
2022-12-31T04:20:31.494Z,4.10
2022-12-31T04:23:02.221Z,4.00
2022-12-31T04:25:30.459Z,4.00
2022-12-31T04:28:00.121Z,4.00
2022-12-31T04:30:28.481Z,4.00
2022-12-31T04:32:56.631Z,4.00
2022-12-31T04:35:24.939Z,3.90
2022-12-31T04:37:53.092Z,3.90
2022-12-31T04:40:21.261Z,4.00
2022-12-31T04:42:49.564Z,3.90
2022-12-31T04:45:19.090Z,3.90
2022-12-31T04:47:47.246Z,3.90
2022-12-31T04:50:15.543Z,3.90
2022-12-31T04:52:43.704Z,3.90
2022-12-31T04:55:12.385Z,3.80
2022-12-31T04:57:40.551Z,3.80
2022-12-31T05:00:12.535Z,3.80
2022-12-31T05:02:42.558Z,3.90
2022-12-31T05:05:11.119Z,3.90
2022-12-31T05:07:39.522Z,3.60
2022-12-31T05:10:08.301Z,3.90
2022-12-31T05:12:36.461Z,3.90
2022-12-31T05:15:06.935Z,3.90
2022-12-31T05:17:35.075Z,4.00
2022-12-31T05:20:04.864Z,4.00
2022-12-31T05:22:33.042Z,4.00
2022-12-31T05:25:04.512Z,4.00
2022-12-31T05:27:32.796Z,4.00
2022-12-31T05:30:01.482Z,4.00
2022-12-31T05:32:32.101Z,4.00
2022-12-31T05:35:00.378Z,4.00
2022-12-31T05:37:31.122Z,4.00
2022-12-31T05:39:59.611Z,3.90
2022-12-31T05:42:27.917Z,3.90
2022-12-31T05:44:56.135Z,3.90
2022-12-31T05:47:24.706Z,3.90
2022-12-31T05:49:53.123Z,4.00
2022-12-31T05:52:21.299Z,4.00
2022-12-31T05:54:50.907Z,4.00
2022-12-31T05:57:19.274Z,3.90
2022-12-31T05:59:47.366Z,4.10
2022-12-31T06:02:15.664Z,4.20
2022-12-31T06:04:46.968Z,4.20
2022-12-31T06:07:15.319Z,3.80
2022-12-31T06:09:45.086Z,4.30
2022-12-31T06:12:14.851Z,4.30
2022-12-31T06:14:45.909Z,4.30
2022-12-31T06:17:16.215Z,4.40
2022-12-31T06:19:44.512Z,4.40
2022-12-31T06:22:12.662Z,4.40
2022-12-31T06:24:40.857Z,4.40
2022-12-31T06:27:09.149Z,4.50
2022-12-31T06:29:38.751Z,4.40
2022-12-31T06:32:07.181Z,4.40
2022-12-31T06:34:35.374Z,4.50
2022-12-31T06:37:03.646Z,4.50
2022-12-31T06:39:31.864Z,4.60
2022-12-31T06:42:00.123Z,4.60
2022-12-31T06:44:28.552Z,4.60
2022-12-31T06:46:58.355Z,4.70
2022-12-31T06:49:28.891Z,4.80
2022-12-31T06:51:57.096Z,4.70
2022-12-31T06:54:26.866Z,4.80
2022-12-31T06:56:55.379Z,4.80
2022-12-31T06:59:28.083Z,4.80
2022-12-31T07:02:05.928Z,4.90
2022-12-31T07:04:40.525Z,4.90
2022-12-31T07:07:09.807Z,4.90
2022-12-31T07:09:40.972Z,4.90
2022-12-31T07:12:13.876Z,4.90
2022-12-31T07:14:45.063Z,5.00
2022-12-31T07:17:17.584Z,5.00
2022-12-31T07:19:53.951Z,5.00
2022-12-31T07:22:25.852Z,4.90
2022-12-31T07:24:54.343Z,4.90
2022-12-31T07:27:37.385Z,5.00
2022-12-31T07:30:08.253Z,4.90
2022-12-31T07:32:43.965Z,5.00
2022-12-31T07:35:17.626Z,5.00
2022-12-31T07:37:50.559Z,5.00
2022-12-31T07:40:20.277Z,5.10
2022-12-31T07:42:58.319Z,5.00
2022-12-31T07:45:29.757Z,5.00
2022-12-31T07:48:02.718Z,5.00
2022-12-31T07:50:31.711Z,5.00
2022-12-31T07:53:00.217Z,5.00
2022-12-31T07:55:28.405Z,5.00
2022-12-31T07:57:58.758Z,5.10
2022-12-31T08:00:27.368Z,5.10
2022-12-31T08:03:03.314Z,5.10
2022-12-31T08:05:33.330Z,5.10
2022-12-31T08:08:07.474Z,5.10
2022-12-31T08:10:39.132Z,5.20
2022-12-31T08:13:11.212Z,5.20
2022-12-31T08:15:39.901Z,5.10
2022-12-31T08:18:10.106Z,5.10
2022-12-31T08:20:45.615Z,5.10
2022-12-31T08:23:21.386Z,5.10
2022-12-31T08:25:57.543Z,5.20
2022-12-31T08:28:31.584Z,5.10
2022-12-31T08:31:03.134Z,5.10
2022-12-31T08:33:36.760Z,5.20
2022-12-31T08:36:12.035Z,5.20
2022-12-31T08:38:44.876Z,5.10
2022-12-31T08:41:17.146Z,5.10
2022-12-31T08:43:50.579Z,5.20
2022-12-31T08:46:22.282Z,5.20
2022-12-31T08:48:52.257Z,5.20
2022-12-31T08:51:22.107Z,5.20
2022-12-31T08:53:50.835Z,5.20
2022-12-31T08:56:23.719Z,5.20
2022-12-31T08:58:54.607Z,5.20
2022-12-31T09:01:26.408Z,5.20
2022-12-31T09:04:12.174Z,5.20
2022-12-31T09:06:43.547Z,5.20
2022-12-31T09:09:16.882Z,5.20
2022-12-31T09:11:51.406Z,5.30
2022-12-31T09:14:26.286Z,5.20
2022-12-31T09:17:00.638Z,5.20
2022-12-31T09:19:30.346Z,5.20
2022-12-31T09:21:58.942Z,5.20
2022-12-31T09:24:27.530Z,5.40
2022-12-31T09:27:02.019Z,5.40
2022-12-31T09:29:36.470Z,5.50
2022-12-31T09:32:08.242Z,5.40
2022-12-31T09:34:41.854Z,5.60
2022-12-31T09:37:16.228Z,5.60
2022-12-31T09:39:45.764Z,5.50
2022-12-31T09:42:34.534Z,5.50
2022-12-31T09:45:21.728Z,5.50
2022-12-31T09:47:59.683Z,5.60
2022-12-31T09:50:35.195Z,5.70
2022-12-31T09:53:11.374Z,5.70
2022-12-31T09:55:46.927Z,5.70
2022-12-31T09:58:25.015Z,5.70
2022-12-31T10:00:54.958Z,5.70
2022-12-31T10:03:31.913Z,5.80
2022-12-31T10:06:12.906Z,5.80
2022-12-31T10:08:47.933Z,5.80
2022-12-31T10:11:18.295Z,5.80
2022-12-31T10:13:51.955Z,5.70
2022-12-31T10:16:33.198Z,5.70
2022-12-31T10:19:16.205Z,5.80
2022-12-31T10:21:52.740Z,5.80
2022-12-31T10:24:41.310Z,5.80
2022-12-31T10:27:16.704Z,5.80
2022-12-31T10:29:47.683Z,5.70
2022-12-31T10:32:17.937Z,5.80
2022-12-31T10:34:54.085Z,5.80
2022-12-31T10:37:25.436Z,5.90
2022-12-31T10:40:01.315Z,5.90
2022-12-31T10:42:47.907Z,5.90
2022-12-31T10:45:31.799Z,6.80
2022-12-31T10:48:17.693Z,5.90
2022-12-31T10:50:56.805Z,5.90
2022-12-31T10:53:43.156Z,5.80
2022-12-31T10:56:35.890Z,5.90
2022-12-31T10:59:23.833Z,5.90
2022-12-31T11:02:00.596Z,5.90
2022-12-31T11:04:46.401Z,5.90
2022-12-31T11:07:24.149Z,5.90
2022-12-31T11:10:02.965Z,6.00
2022-12-31T11:12:44.535Z,5.90
2022-12-31T11:15:50.076Z,5.90
2022-12-31T11:18:24.666Z,5.80
2022-12-31T11:21:03.420Z,5.80
2022-12-31T11:23:37.268Z,5.70
2022-12-31T11:26:12.532Z,5.80
2022-12-31T11:28:51.866Z,5.70
2022-12-31T11:31:24.390Z,5.70
2022-12-31T11:34:01.979Z,5.60
2022-12-31T11:36:36.554Z,5.60
2022-12-31T11:39:16.822Z,5.50
2022-12-31T11:41:50.011Z,5.50
2022-12-31T11:44:20.287Z,5.50
2022-12-31T11:46:57.631Z,5.40
2022-12-31T11:49:41.735Z,5.40
2022-12-31T11:52:25.205Z,5.40
2022-12-31T11:55:03.468Z,5.40
2022-12-31T11:57:37.444Z,5.40
2022-12-31T12:00:08.995Z,5.40
2022-12-31T12:02:38.887Z,5.40
2022-12-31T12:05:11.156Z,5.40
2022-12-31T12:07:39.925Z,5.40
2022-12-31T12:10:16.839Z,5.40
2022-12-31T12:12:46.592Z,5.40
2022-12-31T12:15:18.373Z,5.40
2022-12-31T12:17:51.035Z,5.40
2022-12-31T12:20:20.390Z,5.30
2022-12-31T12:22:52.553Z,5.40
2022-12-31T12:25:22.606Z,5.30
2022-12-31T12:27:52.237Z,5.30
2022-12-31T12:30:21.574Z,5.30
2022-12-31T12:32:53.981Z,5.30
2022-12-31T12:35:25.584Z,5.20
2022-12-31T12:38:00.628Z,5.20
2022-12-31T12:40:33.845Z,5.30
2022-12-31T12:43:07.083Z,5.30
2022-12-31T12:45:39.404Z,5.20
2022-12-31T12:48:10.314Z,5.40
2022-12-31T12:50:40.740Z,5.40
2022-12-31T12:53:12.858Z,5.40
2022-12-31T12:55:47.871Z,5.40
2022-12-31T12:58:22.899Z,5.40
2022-12-31T13:00:55.126Z,5.40
2022-12-31T13:03:48.660Z,5.40
2022-12-31T13:06:35.015Z,5.40
2022-12-31T13:09:10.038Z,5.30
2022-12-31T13:11:43.764Z,5.30
2022-12-31T13:14:18.402Z,5.40
2022-12-31T13:16:51.346Z,5.40
2022-12-31T13:19:23.467Z,5.40
2022-12-31T13:21:56.646Z,5.40
2022-12-31T13:24:34.722Z,5.30
2022-12-31T13:27:07.013Z,5.30
2022-12-31T13:29:37.158Z,5.30
2022-12-31T13:32:06.868Z,5.30
2022-12-31T13:34:36.239Z,5.30
2022-12-31T13:37:06.872Z,5.30
2022-12-31T13:39:39.237Z,5.30
2022-12-31T13:42:10.407Z,5.40
2022-12-31T13:44:41.544Z,5.40
2022-12-31T13:47:12.939Z,5.40
2022-12-31T13:49:44.958Z,5.40
2022-12-31T13:52:19.516Z,5.40
2022-12-31T13:54:54.087Z,5.30
2022-12-31T13:57:26.402Z,5.30
2022-12-31T13:59:58.498Z,5.30
2022-12-31T14:02:33.909Z,5.30
2022-12-31T14:05:04.540Z,5.30
2022-12-31T14:07:45.204Z,5.40
2022-12-31T14:10:14.494Z,5.30
2022-12-31T14:12:47.453Z,5.40
2022-12-31T14:15:20.091Z,5.30
2022-12-31T14:17:50.827Z,5.40
2022-12-31T14:20:23.103Z,5.40
2022-12-31T14:22:52.847Z,5.40
2022-12-31T14:25:23.094Z,5.40
2022-12-31T14:27:52.478Z,5.30
2022-12-31T14:30:25.853Z,5.30
2022-12-31T14:33:02.474Z,5.40
2022-12-31T14:35:38.872Z,5.40
2022-12-31T14:38:09.835Z,5.50
2022-12-31T14:40:44.558Z,5.50
2022-12-31T14:43:18.851Z,5.40
2022-12-31T14:45:55.230Z,5.40
2022-12-31T14:48:29.279Z,5.50
2022-12-31T14:51:00.147Z,5.50
2022-12-31T14:53:29.154Z,5.50
2022-12-31T14:55:58.113Z,5.50
2022-12-31T14:58:31.133Z,5.40
2022-12-31T15:01:01.294Z,5.30
2022-12-31T15:03:37.934Z,5.30
2022-12-31T15:06:16.095Z,5.30
2022-12-31T15:08:50.258Z,5.30
2022-12-31T15:11:28.467Z,5.30
2022-12-31T15:14:08.471Z,5.30
2022-12-31T15:16:49.144Z,5.40
2022-12-31T15:19:31.371Z,5.30
2022-12-31T15:22:04.028Z,5.30
2022-12-31T15:24:32.389Z,5.40
2022-12-31T15:27:01.991Z,5.40
2022-12-31T15:29:32.075Z,5.30
2022-12-31T15:32:03.672Z,5.30
2022-12-31T15:34:33.109Z,5.20
2022-12-31T15:37:01.997Z,5.20
2022-12-31T15:39:43.530Z,5.30
2022-12-31T15:42:39.943Z,5.30
2022-12-31T15:45:14.783Z,5.20
2022-12-31T15:47:47.043Z,5.20
2022-12-31T15:50:18.143Z,5.20
2022-12-31T15:52:48.359Z,5.20
2022-12-31T15:55:21.359Z,5.20
2022-12-31T15:57:50.709Z,5.30
2022-12-31T16:00:19.463Z,5.20
2022-12-31T16:02:49.742Z,5.30
2022-12-31T16:05:22.013Z,5.30
2022-12-31T16:07:50.389Z,5.30
2022-12-31T16:10:21.557Z,5.20
2022-12-31T16:12:51.000Z,5.20
2022-12-31T16:15:21.857Z,5.30
2022-12-31T16:18:00.559Z,5.30
2022-12-31T16:20:31.108Z,5.30
2022-12-31T16:23:01.781Z,5.40
2022-12-31T16:25:34.340Z,5.30
2022-12-31T16:28:03.320Z,5.50
2022-12-31T16:30:32.798Z,5.50
2022-12-31T16:33:04.161Z,5.40
2022-12-31T16:35:33.656Z,5.30
2022-12-31T16:38:02.861Z,5.30
2022-12-31T16:40:31.315Z,5.30
2022-12-31T16:42:59.572Z,5.30
2022-12-31T16:45:32.046Z,5.30
2022-12-31T16:48:02.602Z,5.30
2022-12-31T16:50:32.419Z,5.30
2022-12-31T16:53:03.780Z,5.40
2022-12-31T16:55:32.386Z,5.30
2022-12-31T16:58:02.738Z,5.30
2022-12-31T17:00:30.861Z,5.20
2022-12-31T17:03:07.499Z,5.30
2022-12-31T17:05:55.031Z,5.30
2022-12-31T17:08:24.971Z,5.30
2022-12-31T17:10:53.203Z,5.20
2022-12-31T17:13:28.193Z,5.20
2022-12-31T17:15:57.792Z,5.20
2022-12-31T17:18:27.428Z,5.20
2022-12-31T17:21:05.752Z,5.20
2022-12-31T17:23:34.486Z,5.30
2022-12-31T17:26:04.442Z,5.20
2022-12-31T17:28:38.814Z,5.20
2022-12-31T17:31:26.511Z,5.10
2022-12-31T17:33:55.387Z,5.20
2022-12-31T17:36:26.910Z,5.20
2022-12-31T17:38:55.230Z,5.20
2022-12-31T17:41:24.975Z,5.10
2022-12-31T17:43:54.711Z,5.10
2022-12-31T17:46:23.876Z,5.10
2022-12-31T17:48:54.094Z,5.10
2022-12-31T17:51:24.345Z,5.20
2022-12-31T17:53:54.434Z,5.20
2022-12-31T17:56:22.738Z,5.20
2022-12-31T17:58:52.493Z,5.10
2022-12-31T18:01:21.582Z,5.10
2022-12-31T18:03:50.237Z,5.10
2022-12-31T18:06:19.722Z,5.10
2022-12-31T18:08:48.288Z,5.00
2022-12-31T18:11:19.334Z,5.10
2022-12-31T18:13:47.733Z,5.10
2022-12-31T18:16:15.969Z,5.00
2022-12-31T18:18:45.534Z,4.90
2022-12-31T18:21:17.299Z,4.90
2022-12-31T18:23:49.577Z,4.90
2022-12-31T18:26:20.408Z,4.90
2022-12-31T18:28:49.202Z,4.90
2022-12-31T18:31:18.298Z,5.40
2022-12-31T18:33:47.531Z,4.90
2022-12-31T18:36:16.887Z,4.90
2022-12-31T18:38:45.050Z,4.90
2022-12-31T18:41:17.145Z,4.90
2022-12-31T18:43:47.148Z,4.80
2022-12-31T18:46:16.132Z,4.80
2022-12-31T18:48:44.514Z,4.80
2022-12-31T18:51:15.108Z,4.80
2022-12-31T18:53:43.461Z,4.70
2022-12-31T18:56:12.885Z,4.70
2022-12-31T18:58:41.087Z,4.80
2022-12-31T19:01:23.569Z,4.70
2022-12-31T19:03:51.819Z,4.70
2022-12-31T19:06:20.134Z,4.70
2022-12-31T19:08:48.337Z,4.70
2022-12-31T19:11:16.974Z,4.60
2022-12-31T19:13:45.101Z,4.60
2022-12-31T19:16:14.858Z,4.50
2022-12-31T19:18:43.370Z,4.50
2022-12-31T19:21:15.647Z,4.50
2022-12-31T19:23:43.859Z,4.50
2022-12-31T19:26:17.837Z,4.50
2022-12-31T19:28:49.403Z,4.40
2022-12-31T19:31:19.217Z,4.40
2022-12-31T19:33:47.427Z,4.40
2022-12-31T19:36:19.659Z,4.40
2022-12-31T19:38:47.988Z,4.40
2022-12-31T19:41:17.243Z,4.30
2022-12-31T19:43:45.673Z,4.30
2022-12-31T19:46:14.872Z,4.30
2022-12-31T19:48:45.075Z,4.30
2022-12-31T19:51:14.016Z,4.30
2022-12-31T19:53:42.202Z,4.30
2022-12-31T19:56:13.598Z,4.40
2022-12-31T19:58:41.858Z,4.40
2022-12-31T20:01:11.212Z,4.30
2022-12-31T20:03:39.467Z,4.30
2022-12-31T20:06:11.995Z,4.30
2022-12-31T20:08:43.465Z,4.30
2022-12-31T20:11:12.152Z,4.30
2022-12-31T20:13:43.541Z,4.30
2022-12-31T20:16:13.235Z,4.30
2022-12-31T20:18:42.110Z,4.30
2022-12-31T20:21:12.575Z,4.30
2022-12-31T20:23:41.094Z,4.30
2022-12-31T20:26:09.294Z,4.20
2022-12-31T20:28:37.634Z,4.20
2022-12-31T20:31:06.889Z,4.20
2022-12-31T20:33:35.300Z,4.20
2022-12-31T20:36:04.178Z,4.20
2022-12-31T20:38:33.923Z,4.10
2022-12-31T20:41:09.128Z,4.10
2022-12-31T20:43:37.422Z,4.00
2022-12-31T20:46:14.338Z,4.00
2022-12-31T20:48:43.763Z,3.90
2022-12-31T20:51:15.298Z,3.90
2022-12-31T20:53:49.327Z,3.90
2022-12-31T20:56:18.176Z,3.90
2022-12-31T20:58:46.396Z,3.80
2022-12-31T21:01:15.198Z,3.80
2022-12-31T21:06:33.798Z,3.80
2022-12-31T21:09:04.144Z,3.70
2022-12-31T21:11:49.808Z,3.70
2022-12-31T21:14:18.122Z,3.70
2022-12-31T21:16:46.493Z,3.70
2022-12-31T21:19:16.746Z,3.60
2022-12-31T21:21:44.998Z,3.50
2022-12-31T21:24:17.539Z,3.60
2022-12-31T21:26:49.991Z,3.70
2022-12-31T21:29:18.151Z,3.70
2022-12-31T21:31:46.491Z,3.70
2022-12-31T21:34:14.607Z,3.70
2022-12-31T21:36:42.780Z,3.60
2022-12-31T21:39:10.919Z,3.60
2022-12-31T21:41:52.821Z,3.60
2022-12-31T21:44:22.035Z,3.60
2022-12-31T21:47:25.216Z,3.50
2022-12-31T21:49:38.570Z,3.50
2022-12-31T21:52:24.206Z,3.50
2022-12-31T21:55:09.991Z,3.50
2022-12-31T21:58:15.659Z,3.40
2022-12-31T22:00:47.517Z,3.40
2022-12-31T22:03:28.710Z,3.40
2022-12-31T22:06:00.600Z,3.40
2022-12-31T22:08:29.499Z,3.40
2022-12-31T22:10:58.082Z,3.50
2022-12-31T22:13:27.875Z,3.40
2022-12-31T22:16:03.810Z,3.50
2022-12-31T22:18:34.662Z,3.50
2022-12-31T22:21:03.510Z,3.50
2022-12-31T22:23:32.101Z,3.50
2022-12-31T22:26:03.413Z,3.50
2022-12-31T22:28:38.720Z,3.40
2022-12-31T22:31:08.232Z,3.40
2022-12-31T22:33:36.508Z,3.30
2022-12-31T22:36:06.099Z,3.30
2022-12-31T22:38:34.754Z,3.30
2022-12-31T22:41:04.663Z,3.30
2022-12-31T22:43:35.879Z,3.20
2022-12-31T22:46:07.457Z,3.20
2022-12-31T22:48:35.752Z,3.20
2022-12-31T22:51:04.091Z,3.10
2022-12-31T22:53:32.163Z,3.10
2022-12-31T22:56:00.318Z,3.20
2022-12-31T22:58:28.614Z,3.20
2022-12-31T23:00:58.351Z,3.20
2022-12-31T23:03:26.585Z,3.10
2022-12-31T23:05:54.777Z,3.00
2022-12-31T23:08:24.111Z,3.00
2022-12-31T23:11:01.183Z,3.00
2022-12-31T23:13:50.594Z,3.00
2022-12-31T23:16:38.510Z,2.90
2022-12-31T23:19:24.491Z,2.90
2022-12-31T23:22:10.401Z,2.80
2022-12-31T23:24:40.742Z,2.80
2022-12-31T23:27:09.644Z,2.80
2022-12-31T23:29:45.518Z,2.80
2022-12-31T23:39:19.750Z,2.70
2022-12-31T23:41:48.038Z,2.70
2022-12-31T23:44:16.423Z,2.70
2022-12-31T23:46:44.967Z,2.60
2022-12-31T23:49:13.338Z,2.60
2022-12-31T23:51:44.240Z,2.60
2022-12-31T23:54:15.299Z,2.60
2022-12-31T23:56:45.178Z,2.60
2022-12-31T23:59:13.439Z,2.50
